Time;durP1;ratioP1;P1;durP2;ratioP2;P2;SDS_P1;SDS_P2;PMS_P1;PMS_P2;Temp;Humidity;BMP_temperature;BMP_pressure;BME280_temperature;BME280_humidity;BME280_pressure;Samples;Min_cycle;Max_cycle;Signal;HPM_P1;HPM_P2
2022/05/31 03:02:08;;;;;;;16.57;15.73;;;7.00;99.90;;;;;;5217121;23;20242;-74
2022/05/31 03:04:34;;;;;;;16.33;15.23;;;6.90;99.90;;;;;;5024739;28;20646;-74
2022/05/31 03:07:03;;;;;;;19.33;18.33;;;6.90;99.90;;;;;;5015189;28;20187;-75
2022/05/31 03:09:30;;;;;;;16.17;15.23;;;6.90;99.90;;;;;;5014945;28;20359;-75
2022/05/31 03:12:03;;;;;;;15.93;15.13;;;6.90;99.90;;;;;;5027907;28;20337;-75
2022/05/31 03:15:05;;;;;;;16.07;14.93;;;6.80;99.90;;;;;;5034927;28;20189;-76
2022/05/31 03:17:35;;;;;;;17.03;16.10;;;6.80;99.90;;;;;;5029859;23;20250;-80
2022/05/31 03:20:34;;;;;;;16.60;15.43;;;6.70;99.90;;;;;;5008295;28;20188;-80
2022/05/31 03:23:31;;;;;;;17.70;16.60;;;6.80;99.90;;;;;;5019253;28;20184;-80
2022/05/31 03:26:00;;;;;;;18.37;17.37;;;6.80;99.90;;;;;;5000723;28;20742;-79
2022/05/31 03:28:26;;;;;;;17.20;16.30;;;6.80;99.90;;;;;;5023997;28;20188;-83
2022/05/31 03:30:52;;;;;;;17.37;16.37;;;6.90;99.90;;;;;;5003337;28;20195;-79
2022/05/31 03:33:18;;;;;;;18.80;17.80;;;6.80;99.90;;;;;;5003919;28;20181;-80
2022/05/31 03:35:44;;;;;;;14.13;13.33;;;6.90;99.90;;;;;;5028925;28;20210;-78
2022/05/31 03:38:10;;;;;;;15.23;14.23;;;6.90;99.90;;;;;;5016400;28;20302;-73
2022/05/31 03:43:20;;;;;;;19.40;18.20;;;7.00;99.90;;;;;;5013055;28;20628;-73
2022/05/31 03:45:46;;;;;;;15.73;14.63;;;6.90;99.90;;;;;;5012517;28;20190;-73
2022/05/31 03:48:12;;;;;;;19.47;18.17;;;7.00;99.90;;;;;;5011959;28;20602;-74
2022/05/31 03:50:39;;;;;;;20.67;19.43;;;7.10;99.90;;;;;;5003130;28;20180;-74
2022/05/31 03:53:07;;;;;;;16.70;15.80;;;7.10;99.90;;;;;;4992162;28;20239;-73
2022/05/31 03:55:42;;;;;;;17.97;16.93;;;7.10;99.90;;;;;;4992908;28;20180;-73
2022/05/31 03:58:08;;;;;;;9.53;8.87;;;7.20;99.90;;;;;;4993553;28;20721;-74
2022/05/31 04:00:34;;;;;;;7.00;6.60;;;7.30;99.90;;;;;;4994055;28;20264;-74
2022/05/31 04:03:01;;;;;;;6.93;6.47;;;7.30;99.90;;;;;;4994263;28;20192;-74
2022/05/31 04:05:27;;;;;;;8.27;7.47;;;7.40;99.90;;;;;;4992613;28;20282;-76
2022/05/31 04:07:54;;;;;;;9.23;8.57;;;7.40;99.90;;;;;;4992402;28;20266;-73
2022/05/31 04:10:20;;;;;;;13.10;12.30;;;7.50;99.90;;;;;;4993801;28;20814;-73
2022/05/31 04:12:46;;;;;;;30.90;28.73;;;7.70;99.90;;;;;;4993534;28;20700;-75
2022/05/31 04:15:13;;;;;;;30.60;28.87;;;7.80;99.90;;;;;;4992952;28;20188;-75
2022/05/31 04:17:39;;;;;;;24.20;22.70;;;7.90;99.90;;;;;;4993468;28;20220;-74
2022/05/31 04:20:05;;;;;;;12.53;11.73;;;8.00;99.90;;;;;;4993716;28;20184;-76
2022/05/31 04:22:32;;;;;;;9.50;8.63;;;8.10;99.90;;;;;;4993855;28;20196;-74
2022/05/31 04:25:01;;;;;;;8.23;7.63;;;8.30;99.90;;;;;;4993892;28;20211;-73
2022/05/31 04:27:28;;;;;;;6.80;6.10;;;8.50;99.90;;;;;;4992172;28;20232;-73
2022/05/31 04:29:54;;;;;;;7.67;6.10;;;8.60;99.90;;;;;;4993504;28;20271;-73
2022/05/31 04:32:21;;;;;;;6.90;6.40;;;8.60;99.90;;;;;;4993739;28;20180;-73
2022/05/31 04:34:47;;;;;;;6.77;6.47;;;8.70;99.90;;;;;;4993971;28;20243;-72
2022/05/31 04:37:13;;;;;;;16.27;15.43;;;8.80;99.90;;;;;;4992028;28;20208;-73
2022/05/31 04:39:38;;;;;;;17.70;16.80;;;8.80;99.90;;;;;;4993595;28;20745;-73
2022/05/31 04:42:04;;;;;;;12.57;11.80;;;8.90;99.90;;;;;;4989751;28;20275;-72
2022/05/31 04:44:31;;;;;;;8.80;8.10;;;8.80;99.90;;;;;;4977472;28;20537;-74
2022/05/31 04:46:57;;;;;;;8.13;7.53;;;8.80;99.90;;;;;;4975001;28;20221;-75
2022/05/31 04:49:23;;;;;;;8.47;7.67;;;8.80;99.90;;;;;;4991903;28;20706;-75
2022/05/31 04:51:49;;;;;;;10.70;9.90;;;8.80;99.90;;;;;;4991843;28;20187;-74
2022/05/31 04:54:17;;;;;;;13.93;13.03;;;8.70;99.90;;;;;;4992981;28;20321;-74
2022/05/31 04:56:44;;;;;;;8.47;7.77;;;8.80;99.90;;;;;;4993079;28;20302;-74
2022/05/31 04:59:10;;;;;;;7.20;6.67;;;9.10;99.90;;;;;;4991553;28;20202;-74
2022/05/31 05:01:37;;;;;;;7.23;6.73;;;9.40;99.90;;;;;;4993266;28;20180;-75
2022/05/31 05:04:04;;;;;;;10.37;9.47;;;9.80;99.90;;;;;;4992774;28;20655;-74
2022/05/31 05:06:30;;;;;;;11.30;10.60;;;10.10;99.90;;;;;;4992856;28;20872;-74
2022/05/31 05:08:55;;;;;;;7.23;6.70;;;10.70;99.90;;;;;;4992293;28;20191;-74
2022/05/31 05:11:23;;;;;;;7.00;6.50;;;11.30;99.90;;;;;;4992874;28;20196;-74
2022/05/31 05:13:50;;;;;;;20.87;19.43;;;11.90;99.90;;;;;;4992509;28;20181;-74
2022/05/31 05:16:18;;;;;;;13.60;12.73;;;12.50;99.90;;;;;;4992851;28;20224;-75
2022/05/31 05:18:44;;;;;;;9.20;8.43;;;13.00;99.90;;;;;;4990936;28;20228;-76
2022/05/31 05:21:13;;;;;;;8.43;7.83;;;13.30;99.90;;;;;;4992690;28;20334;-75
2022/05/31 05:23:39;;;;;;;7.20;6.60;;;13.80;99.90;;;;;;4990651;28;20649;-76
2022/05/31 05:26:05;;;;;;;11.00;10.30;;;14.10;99.90;;;;;;4992578;28;20200;-75
2022/05/31 05:31:20;;;;;;;11.00;10.27;;;14.90;99.90;;;;;;4992512;28;20846;-77
2022/05/31 05:33:46;;;;;;;9.37;8.57;;;15.30;99.90;;;;;;4992305;28;20185;-76
2022/05/31 05:36:12;;;;;;;11.83;10.33;;;15.70;99.90;;;;;;4991466;28;20211;-75
2022/05/31 05:38:38;;;;;;;14.07;12.97;;;16.00;99.90;;;;;;4990807;28;20795;-75
2022/05/31 05:41:04;;;;;;;26.53;24.87;;;16.40;99.90;;;;;;4992416;28;20283;-77
2022/05/31 05:43:30;;;;;;;27.40;25.80;;;17.00;99.90;;;;;;4991865;28;20188;-76
2022/05/31 05:45:56;;;;;;;21.50;20.37;;;17.20;99.90;;;;;;4992060;28;20265;-76
2022/05/31 05:48:22;;;;;;;16.83;15.77;;;17.60;99.90;;;;;;4990671;28;20184;-76
2022/05/31 05:50:48;;;;;;;15.33;14.00;;;17.70;99.90;;;;;;4992064;28;20180;-76
2022/05/31 05:53:14;;;;;;;14.27;13.20;;;17.60;99.90;;;;;;4991057;28;20275;-76
2022/05/31 05:55:40;;;;;;;8.90;8.37;;;17.80;99.90;;;;;;4992258;28;20264;-77
2022/05/31 05:58:08;;;;;;;11.63;10.93;;;17.90;99.90;;;;;;4991640;28;20219;-76
2022/05/31 06:00:39;;;;;;;9.23;8.83;;;18.30;99.90;;;;;;4990944;28;20184;-76
2022/05/31 06:03:34;;;;;;;5.30;4.83;;;18.70;99.90;;;;;;4992197;28;20191;-76
2022/05/31 06:06:00;;;;;;;7.50;7.10;;;18.30;99.90;;;;;;4988660;28;20235;-75
2022/05/31 06:08:35;;;;;;;8.80;8.10;;;17.80;99.90;;;;;;4991715;28;20180;-76
2022/05/31 06:11:21;;;;;;;9.03;8.50;;;17.70;99.90;;;;;;4992263;28;20180;-75
2022/05/31 06:13:52;;;;;;;9.63;8.93;;;17.20;99.90;;;;;;4988342;28;20184;-75
2022/05/31 06:16:21;;;;;;;12.40;11.73;;;16.70;99.90;;;;;;4988380;28;20265;-76
2022/05/31 06:18:56;;;;;;;16.17;15.07;;;16.60;99.90;;;;;;4991800;28;20216;-75
2022/05/31 06:21:24;;;;;;;14.00;13.13;;;16.60;99.90;;;;;;4991595;28;20464;-76
2022/05/31 06:23:50;;;;;;;10.47;9.97;;;16.70;99.90;;;;;;4990932;28;20645;-74
2022/05/31 06:26:17;;;;;;;16.10;15.33;;;16.70;99.90;;;;;;4991764;28;20211;-75
2022/05/31 06:28:44;;;;;;;12.63;11.83;;;16.40;99.90;;;;;;4990123;28;20188;-76
2022/05/31 06:31:10;;;;;;;14.77;13.67;;;16.40;99.90;;;;;;4990482;28;20666;-76
2022/05/31 06:33:35;;;;;;;12.77;11.87;;;16.20;99.90;;;;;;4991441;28;20184;-76
2022/05/31 06:36:02;;;;;;;13.27;12.47;;;15.90;99.90;;;;;;4991918;28;20208;-76
2022/05/31 06:38:31;;;;;;;15.67;14.93;;;15.70;99.90;;;;;;4995141;28;20212;-76
2022/05/31 06:40:57;;;;;;;12.80;12.07;;;15.90;99.90;;;;;;4994695;28;20188;-76
2022/05/31 06:43:23;;;;;;;15.13;14.13;;;16.20;99.90;;;;;;4994403;28;20180;-76
2022/05/31 06:45:50;;;;;;;17.97;16.40;;;16.40;99.90;;;;;;4995702;28;20238;-76
2022/05/31 06:48:16;;;;;;;12.03;11.43;;;16.50;99.90;;;;;;4993526;28;20530;-76
2022/05/31 06:50:42;;;;;;;11.37;10.67;;;16.90;99.90;;;;;;4995492;28;20694;-76
2022/05/31 06:58:43;;;;;;;9.67;8.90;;;19.70;99.90;;;;;;4994602;28;20211;-76
2022/05/31 07:01:09;;;;;;;10.83;10.20;;;19.80;99.90;;;;;;4995100;28;20595;-77
2022/05/31 07:03:36;;;;;;;10.53;9.93;;;19.80;99.90;;;;;;4995379;28;20263;-76
2022/05/31 07:06:02;;;;;;;9.67;8.77;;;19.80;99.90;;;;;;4994008;28;20203;-76
2022/05/31 07:08:28;;;;;;;8.97;8.47;;;19.50;99.90;;;;;;4994361;28;20711;-76
2022/05/31 07:10:54;;;;;;;12.35;11.35;;;19.60;99.90;;;;;;4993896;28;20184;-76
2022/05/31 07:13:21;;;;;;;12.77;11.95;;;19.90;99.90;;;;;;4994916;28;20196;-76
2022/05/31 07:15:50;;;;;;;8.57;7.82;;;20.20;99.90;;;;;;4993694;28;20187;-75
2022/05/31 07:18:18;;;;;;;6.07;5.68;;;20.50;99.90;;;;;;4994775;28;20212;-76
2022/05/31 07:20:44;;;;;;;6.97;5.13;;;20.90;99.90;;;;;;4995087;28;20188;-75
2022/05/31 07:23:10;;;;;;;4.75;4.45;;;21.60;98.90;;;;;;4993250;28;20234;-75
2022/05/31 07:25:36;;;;;;;5.05;4.85;;;22.10;98.50;;;;;;4994685;28;20172;-76
2022/05/31 07:28:02;;;;;;;5.28;5.05;;;22.30;95.80;;;;;;4993408;28;20199;-76
2022/05/31 07:30:28;;;;;;;5.20;4.80;;;22.30;93.90;;;;;;4994580;28;20211;-76
2022/05/31 07:32:53;;;;;;;6.88;6.25;;;22.20;94.60;;;;;;4993278;28;20279;-76
2022/05/31 07:35:19;;;;;;;9.38;8.98;;;22.80;94.40;;;;;;4993326;28;20188;-76
2022/05/31 07:37:45;;;;;;;8.00;7.50;;;23.00;92.50;;;;;;4992919;28;20208;-76
2022/05/31 07:40:11;;;;;;;5.32;5.03;;;23.20;91.30;;;;;;4994701;28;20235;-76
2022/05/31 07:42:37;;;;;;;5.97;3.83;;;23.50;90.20;;;;;;4994573;28;20549;-76
2022/05/31 07:45:04;;;;;;;3.20;2.90;;;23.90;87.80;;;;;;4993920;28;20172;-77
2022/05/31 07:47:30;;;;;;;4.35;3.58;;;24.00;83.90;;;;;;4993858;28;20204;-76
2022/05/31 07:49:56;;;;;;;5.00;3.90;;;24.10;85.30;;;;;;4994787;28;20176;-77
2022/05/31 07:52:22;;;;;;;4.47;4.07;;;24.00;83.00;;;;;;4993502;28;20672;-76
2022/05/31 07:54:48;;;;;;;4.85;4.60;;;23.70;82.10;;;;;;4994460;28;20715;-76
2022/05/31 07:59:59;;;;;;;5.28;5.07;;;24.10;81.60;;;;;;4994422;28;20192;-76
2022/05/31 08:02:24;;;;;;;5.35;5.05;;;24.80;78.50;;;;;;4994406;28;20208;-77
2022/05/31 08:04:50;;;;;;;4.25;4.05;;;24.80;80.40;;;;;;4994873;28;20184;-77
2022/05/31 08:07:16;;;;;;;4.10;3.90;;;24.60;74.90;;;;;;4994272;28;20197;-76
2022/05/31 08:09:42;;;;;;;4.72;4.47;;;24.70;77.60;;;;;;4986406;28;20189;-76
2022/05/31 08:12:09;;;;;;;4.68;4.47;;;24.80;73.70;;;;;;4986508;28;20650;-76
2022/05/31 08:14:35;;;;;;;6.97;6.57;;;25.40;73.90;;;;;;4977811;28;20173;-76
2022/05/31 08:17:03;;;;;;;4.95;4.43;;;25.60;69.90;;;;;;4992029;28;20286;-76
2022/05/31 08:19:29;;;;;;;4.88;4.68;;;25.20;67.20;;;;;;4993523;28;20212;-75
2022/05/31 08:21:56;;;;;;;6.55;6.25;;;25.00;67.60;;;;;;4993665;28;20267;-75
2022/05/31 08:24:23;;;;;;;5.28;4.90;;;24.90;67.30;;;;;;4992159;28;20184;-76
2022/05/31 08:26:49;;;;;;;4.40;4.10;;;25.20;67.50;;;;;;4992022;28;20223;-76
2022/05/31 08:29:17;;;;;;;4.68;4.38;;;25.40;67.40;;;;;;4993321;28;20320;-76
2022/05/31 08:31:43;;;;;;;3.83;3.53;;;25.80;69.60;;;;;;4992315;28;20247;-76
2022/05/31 08:34:10;;;;;;;3.40;3.10;;;26.30;63.30;;;;;;4990894;28;20258;-76
2022/05/31 08:36:36;;;;;;;3.20;2.90;;;26.40;61.90;;;;;;4991636;28;20197;-76
2022/05/31 08:39:02;;;;;;;3.42;3.22;;;26.30;62.60;;;;;;4993435;28;20226;-76
2022/05/31 08:41:30;;;;;;;3.60;3.30;;;26.10;64.00;;;;;;4992936;28;20196;-76
2022/05/31 08:44:12;;;;;;;3.28;3.17;;;26.40;64.30;;;;;;4993811;28;20184;-75
2022/05/31 08:46:53;;;;;;;3.92;3.63;;;26.30;62.00;;;;;;4993917;28;20226;-75
2022/05/31 08:52:58;;;;;;;4.05;3.95;;;26.70;59.10;;;;;;4993345;28;20185;-76
2022/05/31 08:58:23;;;;;;;3.85;3.65;;;26.30;58.20;;;;;;4991906;28;20232;-76
2022/05/31 09:00:53;;;;;;;4.07;3.85;;;26.40;58.40;;;;;;4993518;28;20176;-76
2022/05/31 09:03:36;;;;;;;4.60;4.07;;;26.50;58.30;;;;;;4992128;28;20191;-75
2022/05/31 09:06:08;;;;;;;3.38;3.28;;;26.90;58.20;;;;;;4991760;28;20223;-76
2022/05/31 09:08:58;;;;;;;3.70;3.53;;;27.20;56.80;;;;;;4992745;28;20192;-75
2022/05/31 09:11:30;;;;;;;4.05;3.72;;;27.50;58.30;;;;;;4993149;28;20556;-76
2022/05/31 09:14:00;;;;;;;4.07;3.88;;;27.80;58.10;;;;;;4992983;28;20187;-76
2022/05/31 09:16:34;;;;;;;3.00;2.90;;;27.40;57.80;;;;;;5014195;23;20310;-73
2022/05/31 09:19:05;;;;;;;3.60;3.30;;;27.20;57.60;;;;;;4992066;28;20589;-73
2022/05/31 09:21:34;;;;;;;3.83;3.55;;;27.80;57.50;;;;;;4992910;28;20200;-73
2022/05/31 09:24:00;;;;;;;5.22;3.42;;;27.80;54.40;;;;;;4992745;28;20641;-74
2022/05/31 09:26:53;;;;;;;3.70;3.53;;;27.90;55.30;;;;;;4992654;28;20738;-73
2022/05/31 09:29:35;;;;;;;3.78;3.47;;;27.20;57.00;;;;;;4992864;28;20196;-73
2022/05/31 09:32:13;;;;;;;3.90;3.20;;;27.20;58.50;;;;;;4992831;28;20674;-73
2022/05/31 09:34:50;;;;;;;3.78;3.58;;;27.40;59.50;;;;;;4992839;28;20185;-73
2022/05/31 09:37:35;;;;;;;4.00;3.42;;;27.60;58.10;;;;;;5002720;28;20208;-71
2022/05/31 09:40:38;;;;;;;4.03;3.83;;;27.90;57.40;;;;;;4974047;28;20195;-73
2022/05/31 09:43:25;;;;;;;10.27;9.68;;;28.60;55.00;;;;;;4985610;28;20180;-73
2022/05/31 09:45:56;;;;;;;7.45;7.07;;;29.50;53.80;;;;;;4991308;28;20195;-73
2022/05/31 09:48:22;;;;;;;11.38;10.77;;;28.90;51.40;;;;;;4991698;28;20188;-73
2022/05/31 09:50:48;;;;;;;12.10;11.30;;;29.00;52.60;;;;;;4991776;28;20188;-72
2022/05/31 09:59:10;;;;;;;13.38;12.52;;;27.70;56.20;;;;;;4971983;28;20193;-72
2022/05/31 10:01:45;;;;;;;11.27;10.60;;;27.40;56.60;;;;;;4977642;28;20193;-73
2022/05/31 10:04:19;;;;;;;8.55;8.05;;;27.20;54.50;;;;;;5010447;28;20183;-72
2022/05/31 10:06:51;;;;;;;8.65;8.07;;;27.20;53.90;;;;;;4985009;28;20563;-71
2022/05/31 10:09:18;;;;;;;5.53;5.03;;;26.90;54.10;;;;;;4991514;28;20212;-72
2022/05/31 10:11:45;;;;;;;6.20;3.97;;;26.40;56.40;;;;;;4972443;28;20235;-72
2022/05/31 10:14:32;;;;;;;5.53;5.13;;;26.40;57.00;;;;;;4972502;28;20185;-72
2022/05/31 10:17:28;;;;;;;4.05;3.72;;;27.10;56.30;;;;;;4970830;28;20212;-72
2022/05/31 10:20:20;;;;;;;7.55;7.18;;;27.90;55.80;;;;;;4977134;28;20188;-71
2022/05/31 10:22:53;;;;;;;11.10;10.43;;;29.20;53.60;;;;;;4981021;28;20216;-71
2022/05/31 10:25:31;;;;;;;4.55;4.32;;;29.80;51.60;;;;;;4990115;28;20271;-71
2022/05/31 10:28:00;;;;;;;5.53;5.03;;;29.10;50.70;;;;;;4991130;28;20667;-71
2022/05/31 10:30:27;;;;;;;5.22;4.95;;;28.80;51.40;;;;;;4991800;28;20589;-71
2022/05/31 10:32:55;;;;;;;4.32;4.13;;;29.40;52.00;;;;;;4991707;28;20188;-71
2022/05/31 10:35:32;;;;;;;4.43;3.90;;;29.00;50.80;;;;;;4991681;28;20227;-71
2022/05/31 10:38:18;;;;;;;5.13;4.72;;;28.10;50.50;;;;;;4991052;28;20584;-71
2022/05/31 10:41:06;;;;;;;6.15;4.70;;;27.20;50.70;;;;;;4992085;28;20545;-71
2022/05/31 10:43:40;;;;;;;28.65;27.02;;;26.70;50.70;;;;;;4991519;28;20273;-71
2022/05/31 10:46:23;;;;;;;5.72;5.32;;;26.20;55.10;;;;;;4989971;28;20667;-71
2022/05/31 10:48:51;;;;;;;5.18;4.50;;;25.80;57.40;;;;;;4990971;28;20335;-71
2022/05/31 10:51:35;;;;;;;5.32;4.93;;;25.90;56.90;;;;;;4991901;28;20718;-71
2022/05/31 10:54:25;;;;;;;6.93;6.53;;;26.60;56.80;;;;;;4991700;28;20208;-71
2022/05/31 10:56:57;;;;;;;8.38;7.88;;;27.40;54.50;;;;;;4991165;28;20204;-71
2022/05/31 10:59:35;;;;;;;9.93;9.32;;;28.40;52.40;;;;;;4991571;28;20196;-71
2022/05/31 11:02:22;;;;;;;4.28;3.88;;;29.00;52.70;;;;;;4991525;28;20187;-71
2022/05/31 11:04:57;;;;;;;4.47;4.13;;;28.70;50.60;;;;;;4991603;28;20202;-71
2022/05/31 11:07:41;;;;;;;5.35;4.95;;;28.80;50.90;;;;;;4990975;28;20262;-71
2022/05/31 11:13:19;;;;;;;8.23;7.82;;;29.90;50.90;;;;;;4991127;28;20226;-71
2022/05/31 11:15:59;;;;;;;22.73;21.55;;;30.50;50.70;;;;;;4991507;28;20682;-71
2022/05/31 11:19:01;;;;;;;23.05;21.77;;;30.90;49.30;;;;;;4992919;28;20719;-71
2022/05/31 11:21:35;;;;;;;20.23;19.25;;;30.50;46.40;;;;;;4992154;28;20531;-71
2022/05/31 11:24:21;;;;;;;25.08;23.58;;;29.50;49.20;;;;;;4994914;28;20191;-71
2022/05/31 11:27:23;;;;;;;23.42;22.02;;;29.40;52.40;;;;;;4994826;28;20211;-71
2022/05/31 11:29:58;;;;;;;21.73;20.33;;;29.50;50.70;;;;;;4994880;28;20212;-71
2022/05/31 11:32:48;;;;;;;25.13;23.55;;;29.70;51.10;;;;;;4994616;28;20180;-71
2022/05/31 11:35:53;;;;;;;27.70;26.13;;;29.50;50.70;;;;;;4994757;28;20180;-71
2022/05/31 11:38:46;;;;;;;18.33;17.27;;;29.40;50.10;;;;;;4994126;28;20230;-70
2022/05/31 11:41:42;;;;;;;9.13;8.50;;;28.60;50.80;;;;;;4992098;28;20203;-71
2022/05/31 11:44:25;;;;;;;4.45;3.92;;;28.30;51.80;;;;;;4994462;28;20200;-72
2022/05/31 11:47:00;;;;;;;13.18;12.07;;;27.30;54.10;;;;;;4992756;28;20208;-71
2022/05/31 11:49:45;;;;;;;10.52;9.68;;;26.40;56.00;;;;;;4994288;28;20222;-71
2022/05/31 11:52:32;;;;;;;5.40;5.10;;;25.60;57.00;;;;;;4990893;28;20184;-71
2022/05/31 11:55:25;;;;;;;4.53;4.22;;;25.10;58.10;;;;;;5001446;28;20183;-71
2022/05/31 11:57:54;;;;;;;4.45;4.10;;;25.70;57.70;;;;;;5013495;28;20286;-71
2022/05/31 12:00:20;;;;;;;9.75;9.02;;;27.30;57.50;;;;;;5013861;28;20179;-71
2022/05/31 12:03:07;;;;;;;9.93;8.90;;;28.10;52.10;;;;;;5012529;28;20202;-71
2022/05/31 12:05:45;;;;;;;9.00;8.50;;;28.00;52.70;;;;;;5012444;28;20645;-71
2022/05/31 12:08:16;;;;;;;4.72;4.35;;;28.60;52.60;;;;;;5013067;28;20294;-71
2022/05/31 12:10:47;;;;;;;4.75;4.45;;;29.10;51.60;;;;;;5013547;28;20266;-71
2022/05/31 12:13:15;;;;;;;11.13;10.25;;;29.40;49.20;;;;;;5013492;28;20226;-71
2022/05/31 12:15:43;;;;;;;23.85;22.52;;;29.50;49.10;;;;;;5013517;28;20184;-71
2022/05/31 12:18:43;;;;;;;27.17;25.77;;;29.60;47.70;;;;;;5011765;28;20215;-71
2022/05/31 12:21:23;;;;;;;27.52;26.08;;;29.30;47.70;;;;;;5013996;28;20593;-71
2022/05/31 12:23:53;;;;;;;28.73;27.30;;;29.40;47.70;;;;;;5013363;28;20183;-71
2022/05/31 12:26:29;;;;;;;25.20;23.85;;;29.60;47.10;;;;;;5013243;28;20199;-71
2022/05/31 12:29:06;;;;;;;29.75;28.02;;;29.30;48.20;;;;;;5012808;28;20218;-71
2022/05/31 12:31:37;;;;;;;31.40;29.25;;;29.30;47.60;;;;;;5013231;28;20195;-71
2022/05/31 12:34:18;;;;;;;32.92;30.88;;;28.90;47.60;;;;;;5012012;28;20180;-71
2022/05/31 12:37:06;;;;;;;11.95;11.25;;;28.60;47.60;;;;;;5012853;28;20223;-72
2022/05/31 12:39:35;;;;;;;10.10;9.50;;;28.10;49.60;;;;;;5012957;28;20188;-71
2022/05/31 12:42:13;;;;;;;5.05;4.65;;;27.90;48.50;;;;;;5011899;28;20560;-71
2022/05/31 12:44:42;;;;;;;4.53;4.30;;;27.50;49.70;;;;;;5013167;28;20183;-71
2022/05/31 12:47:25;;;;;;;6.55;6.05;;;26.70;50.30;;;;;;5012892;28;20211;-71
2022/05/31 12:50:04;;;;;;;5.00;4.55;;;26.80;54.30;;;;;;5013128;28;20316;-71
2022/05/31 12:55:36;;;;;;;9.00;8.25;;;29.70;49.20;;;;;;5013275;28;20555;-71
2022/05/31 13:00:52;;;;;;;25.73;24.52;;;29.60;47.00;;;;;;5013600;28;20190;-71
2022/05/31 13:03:33;;;;;;;16.73;15.70;;;28.80;47.70;;;;;;5011917;28;20643;-72
2022/05/31 13:06:07;;;;;;;15.70;14.77;;;28.90;47.80;;;;;;5012584;28;20179;-71
2022/05/31 13:08:59;;;;;;;22.33;21.23;;;29.10;48.20;;;;;;5012219;28;20238;-71
2022/05/31 13:20:41;;;;;;;7.97;7.28;;;28.10;49.50;;;;;;5012509;28;20274;-72
2022/05/31 13:23:07;;;;;;;7.22;4.85;;;27.50;49.60;;;;;;4992966;28;20196;-72
2022/05/31 13:25:51;;;;;;;5.97;5.45;;;28.30;49.00;;;;;;4975752;28;20185;-72
2022/05/31 13:28:59;;;;;;;26.50;25.02;;;29.40;48.10;;;;;;4971444;28;20217;-72
2022/05/31 13:31:27;;;;;;;22.10;20.65;;;30.10;45.40;;;;;;4972939;28;20190;-73
2022/05/31 13:34:03;;;;;;;29.83;28.20;;;30.70;43.40;;;;;;4973030;28;20209;-72
2022/05/31 13:36:44;;;;;;;24.08;22.95;;;30.90;44.10;;;;;;4973322;28;20288;-72
2022/05/31 13:39:13;;;;;;;21.17;19.77;;;30.80;43.90;;;;;;4972468;28;20271;-72
2022/05/31 13:42:00;;;;;;;11.48;10.77;;;30.80;43.50;;;;;;4972012;28;20669;-72
2022/05/31 13:44:34;;;;;;;13.07;12.35;;;30.50;42.50;;;;;;4970997;28;20259;-72
2022/05/31 13:47:03;;;;;;;12.75;12.07;;;30.00;41.80;;;;;;4971457;28;20208;-72
2022/05/31 13:49:41;;;;;;;5.68;5.28;;;30.60;42.80;;;;;;4971448;28;20237;-72
2022/05/31 13:52:21;;;;;;;8.00;7.55;;;30.20;41.50;;;;;;4972716;28;20593;-72
2022/05/31 13:54:47;;;;;;;4.97;4.50;;;30.40;41.30;;;;;;4972583;28;20657;-72
2022/05/31 13:57:15;;;;;;;14.25;13.45;;;30.80;40.20;;;;;;4971200;28;20227;-72
2022/05/31 13:59:48;;;;;;;6.28;5.97;;;30.70;42.30;;;;;;4972387;28;20193;-74
2022/05/31 14:02:48;;;;;;;5.95;5.75;;;30.70;40.50;;;;;;4971627;28;20185;-72
2022/05/31 14:05:18;;;;;;;7.18;6.82;;;29.70;41.50;;;;;;4972503;28;20199;-71
2022/05/31 14:07:48;;;;;;;12.57;11.77;;;28.90;42.20;;;;;;4971930;28;20205;-72
2022/05/31 14:10:21;;;;;;;18.33;17.02;;;28.40;43.30;;;;;;4972694;28;20544;-71
2022/05/31 14:12:48;;;;;;;20.10;19.05;;;28.40;43.50;;;;;;4972247;28;20252;-71
2022/05/31 14:15:26;;;;;;;21.35;20.27;;;28.70;44.00;;;;;;4970864;28;20236;-74
2022/05/31 14:18:13;;;;;;;25.65;24.38;;;28.90;43.70;;;;;;4978687;28;20310;-71
2022/05/31 14:20:46;;;;;;;23.08;21.88;;;28.40;43.50;;;;;;4991854;28;20263;-70
2022/05/31 14:23:26;;;;;;;23.63;22.35;;;28.20;45.20;;;;;;4991607;28;20271;-75
2022/05/31 14:25:53;;;;;;;23.75;22.48;;;28.00;43.50;;;;;;4990670;28;20266;-75
2022/05/31 14:28:23;;;;;;;21.35;20.15;;;27.50;45.00;;;;;;4990053;28;20224;-76
2022/05/31 14:30:57;;;;;;;9.25;8.73;;;27.20;44.00;;;;;;4991706;28;20606;-75
2022/05/31 14:33:26;;;;;;;12.40;11.80;;;27.30;46.60;;;;;;4992149;28;20199;-76
2022/05/31 14:35:56;;;;;;;19.02;18.00;;;28.20;44.70;;;;;;4992200;28;20176;-76
2022/05/31 14:38:22;;;;;;;23.27;21.75;;;28.90;43.40;;;;;;5002790;28;20188;-76
2022/05/31 14:40:58;;;;;;;25.42;23.73;;;28.80;43.30;;;;;;4995858;28;20186;-76
2022/05/31 14:43:56;;;;;;;27.58;25.95;;;28.40;43.40;;;;;;4991926;28;20192;-76
2022/05/31 14:46:28;;;;;;;19.40;18.45;;;29.00;42.90;;;;;;4989983;28;20212;-76
2022/05/31 14:49:11;;;;;;;16.88;15.57;;;29.50;42.80;;;;;;4991021;28;20208;-76
2022/05/31 14:51:39;;;;;;;27.38;25.77;;;29.60;42.30;;;;;;4998482;28;20189;-76
2022/05/31 14:54:40;;;;;;;35.20;33.05;;;28.90;43.20;;;;;;5010012;28;20669;-76
2022/05/31 14:57:25;;;;;;;30.52;28.83;;;28.70;44.70;;;;;;5012398;28;20528;-78
2022/05/31 14:59:55;;;;;;;28.52;26.70;;;28.00;43.90;;;;;;5015438;28;20183;-77
2022/05/31 15:02:23;;;;;;;20.10;18.80;;;27.50;44.90;;;;;;5015448;28;20744;-78
2022/05/31 15:04:56;;;;;;;9.35;7.82;;;26.80;45.70;;;;;;5014148;28;20183;-77
2022/05/31 15:07:27;;;;;;;6.50;6.00;;;26.60;47.40;;;;;;5014836;28;20207;-73
2022/05/31 15:10:24;;;;;;;5.80;5.50;;;26.70;46.30;;;;;;5013748;28;20326;-73
2022/05/31 15:21:10;;;;;;;20.63;19.50;;;28.00;43.90;;;;;;4995645;28;20180;-76
2022/05/31 15:23:36;;;;;;;24.98;23.48;;;28.20;43.20;;;;;;4995943;28;20597;-77
2022/05/31 15:26:05;;;;;;;25.40;24.17;;;28.10;43.50;;;;;;4996410;28;20637;-77
2022/05/31 15:28:32;;;;;;;25.80;24.35;;;27.90;42.90;;;;;;4994640;28;20311;-77
2022/05/31 15:31:03;;;;;;;26.63;24.77;;;27.60;43.70;;;;;;4996889;28;20180;-77
2022/05/31 15:33:29;;;;;;;23.13;21.92;;;27.10;43.70;;;;;;4996039;28;20624;-76
2022/05/31 15:35:55;;;;;;;8.82;8.30;;;26.70;43.40;;;;;;4996278;28;20172;-76
2022/05/31 15:38:27;;;;;;;5.28;4.97;;;26.00;46.60;;;;;;4995528;28;20208;-77
2022/05/31 15:40:54;;;;;;;9.77;5.55;;;25.30;48.00;;;;;;4996543;28;20663;-77
2022/05/31 15:46:05;;;;;;;9.60;9.00;;;24.60;48.60;;;;;;4997660;28;20691;-77
2022/05/31 15:48:31;;;;;;;13.65;12.95;;;24.20;49.20;;;;;;4996037;28;20216;-77
2022/05/31 15:51:00;;;;;;;7.50;7.00;;;23.90;50.20;;;;;;4995165;28;20180;-77
2022/05/31 15:53:28;;;;;;;5.07;4.88;;;23.60;51.20;;;;;;4996163;28;20181;-77
2022/05/31 15:55:54;;;;;;;6.10;5.72;;;23.40;51.20;;;;;;4999902;28;20180;-77
2022/05/31 15:58:20;;;;;;;4.82;4.53;;;23.20;50.70;;;;;;5003176;28;20203;-77
2022/05/31 16:00:46;;;;;;;4.60;4.40;;;22.90;50.50;;;;;;5003905;28;20191;-78
2022/05/31 16:03:12;;;;;;;4.80;4.10;;;22.80;53.30;;;;;;5002269;28;20180;-77
2022/05/31 16:05:39;;;;;;;4.82;4.35;;;22.80;54.30;;;;;;4996224;28;20185;-77
2022/05/31 16:08:06;;;;;;;5.90;5.43;;;22.70;55.40;;;;;;5000244;28;20211;-77
2022/05/31 16:10:33;;;;;;;10.80;10.05;;;22.70;56.00;;;;;;4988629;28;20723;-76
2022/05/31 16:13:01;;;;;;;12.82;12.13;;;22.70;56.60;;;;;;4996205;28;20187;-77
2022/05/31 16:15:27;;;;;;;20.35;19.35;;;22.70;56.80;;;;;;4994228;28;20231;-77
2022/05/31 16:17:53;;;;;;;11.00;10.45;;;22.70;56.80;;;;;;4993850;28;20219;-76
2022/05/31 16:20:19;;;;;;;11.75;11.02;;;22.70;55.10;;;;;;4995310;28;20180;-77
2022/05/31 16:22:49;;;;;;;10.95;10.40;;;22.70;55.70;;;;;;4992962;28;20180;-77
2022/05/31 16:25:23;;;;;;;10.00;9.48;;;22.70;55.10;;;;;;4999076;28;20261;-79
2022/05/31 16:27:52;;;;;;;8.30;7.85;;;22.60;54.70;;;;;;5004494;28;20208;-77
2022/05/31 16:30:19;;;;;;;9.30;8.50;;;22.60;54.50;;;;;;5000747;28;20204;-78
2022/05/31 16:32:45;;;;;;;8.55;7.88;;;22.50;54.00;;;;;;4999154;28;20180;-78
2022/05/31 16:35:12;;;;;;;7.68;7.18;;;22.50;54.20;;;;;;5001199;28;20319;-78
2022/05/31 16:43:16;;;;;;;14.55;13.80;;;22.50;54.30;;;;;;4993167;28;20180;-80
2022/05/31 16:45:43;;;;;;;10.55;9.80;;;22.40;54.70;;;;;;5000668;28;20176;-78
2022/05/31 16:48:09;;;;;;;8.63;8.20;;;22.50;54.30;;;;;;4998693;28;20220;-78
2022/05/31 16:50:35;;;;;;;10.68;9.80;;;22.50;54.30;;;;;;4998855;28;20172;-77
2022/05/31 16:53:01;;;;;;;10.00;9.18;;;22.50;54.40;;;;;;5008414;28;20209;-78
2022/05/31 16:55:27;;;;;;;8.75;8.10;;;22.60;53.70;;;;;;4996221;28;20248;-78
2022/05/31 16:57:57;;;;;;;16.38;15.38;;;22.80;54.20;;;;;;5000310;28;20848;-79
2022/05/31 17:00:24;;;;;;;9.63;9.13;;;23.10;54.90;;;;;;5000260;28;20177;-78
2022/05/31 17:02:49;;;;;;;7.50;6.95;;;23.40;54.30;;;;;;4994972;28;20363;-78
2022/05/31 17:05:15;;;;;;;6.40;5.97;;;23.50;54.00;;;;;;4995078;28;20182;-79